sensor_id;sensor_type;location;lat;lon;timestamp;P1;durP1;ratioP1;P2;durP2;ratioP2
5460;SDS011;2753;49.196;8.286;2024-01-15T00:00:07;51.67;;;17.57;;
5460;SDS011;2753;49.196;8.286;2024-01-15T00:02:33;57.70;;;17.00;;
5460;SDS011;2753;49.196;8.286;2024-01-15T00:04:59;46.37;;;14.40;;
5460;SDS011;2753;49.196;8.286;2024-01-15T00:07:25;49.53;;;15.97;;
5460;SDS011;2753;49.196;8.286;2024-01-15T00:09:50;47.00;;;15.70;;
5460;SDS011;2753;49.196;8.286;2024-01-15T00:12:16;55.50;;;14.93;;
5460;SDS011;2753;49.196;8.286;2024-01-15T00:14:41;50.60;;;12.90;;
5460;SDS011;2753;49.196;8.286;2024-01-15T00:17:07;47.43;;;14.90;;
5460;SDS011;2753;49.196;8.286;2024-01-15T00:19:33;44.73;;;14.77;;
5460;SDS011;2753;49.196;8.286;2024-01-15T00:21:59;64.53;;;16.37;;
5460;SDS011;2753;49.196;8.286;2024-01-15T00:24:25;55.43;;;14.50;;
5460;SDS011;2753;49.196;8.286;2024-01-15T00:26:51;56.30;;;15.50;;
5460;SDS011;2753;49.196;8.286;2024-01-15T00:29:18;48.20;;;14.30;;
5460;SDS011;2753;49.196;8.286;2024-01-15T00:31:44;43.63;;;13.50;;
5460;SDS011;2753;49.196;8.286;2024-01-15T00:34:09;36.87;;;14.00;;
5460;SDS011;2753;49.196;8.286;2024-01-15T00:36:35;40.97;;;14.90;;
5460;SDS011;2753;49.196;8.286;2024-01-15T00:39:01;49.73;;;16.27;;
5460;SDS011;2753;49.196;8.286;2024-01-15T00:41:26;43.70;;;13.90;;
5460;SDS011;2753;49.196;8.286;2024-01-15T00:43:52;49.60;;;15.50;;
5460;SDS011;2753;49.196;8.286;2024-01-15T00:46:18;42.13;;;12.80;;
5460;SDS011;2753;49.196;8.286;2024-01-15T00:48:44;48.07;;;18.20;;
5460;SDS011;2753;49.196;8.286;2024-01-15T00:51:10;58.57;;;17.53;;
5460;SDS011;2753;49.196;8.286;2024-01-15T00:53:35;51.27;;;16.43;;
5460;SDS011;2753;49.196;8.286;2024-01-15T00:56:01;45.93;;;15.97;;
5460;SDS011;2753;49.196;8.286;2024-01-15T00:58:28;52.63;;;15.70;;
5460;SDS011;2753;49.196;8.286;2024-01-15T01:00:53;49.60;;;15.67;;
5460;SDS011;2753;49.196;8.286;2024-01-15T01:03:20;42.77;;;14.37;;
5460;SDS011;2753;49.196;8.286;2024-01-15T01:05:48;49.13;;;13.70;;
5460;SDS011;2753;49.196;8.286;2024-01-15T01:08:14;55.47;;;16.47;;
5460;SDS011;2753;49.196;8.286;2024-01-15T01:10:40;51.47;;;14.13;;
5460;SDS011;2753;49.196;8.286;2024-01-15T01:13:07;37.90;;;13.13;;
5460;SDS011;2753;49.196;8.286;2024-01-15T01:15:33;37.27;;;13.33;;
5460;SDS011;2753;49.196;8.286;2024-01-15T01:17:59;40.10;;;13.30;;
5460;SDS011;2753;49.196;8.286;2024-01-15T01:20:25;36.03;;;12.97;;
5460;SDS011;2753;49.196;8.286;2024-01-15T01:22:50;34.40;;;12.33;;
5460;SDS011;2753;49.196;8.286;2024-01-15T01:25:16;36.77;;;12.07;;
5460;SDS011;2753;49.196;8.286;2024-01-15T01:27:42;39.00;;;15.10;;
5460;SDS011;2753;49.196;8.286;2024-01-15T01:30:08;28.07;;;9.77;;
5460;SDS011;2753;49.196;8.286;2024-01-15T01:32:34;33.87;;;10.60;;
5460;SDS011;2753;49.196;8.286;2024-01-15T01:35:00;46.10;;;11.30;;
5460;SDS011;2753;49.196;8.286;2024-01-15T01:37:26;33.83;;;12.80;;
5460;SDS011;2753;49.196;8.286;2024-01-15T01:39:51;35.17;;;10.90;;
5460;SDS011;2753;49.196;8.286;2024-01-15T01:42:17;33.37;;;11.93;;
5460;SDS011;2753;49.196;8.286;2024-01-15T01:44:43;31.10;;;10.90;;
5460;SDS011;2753;49.196;8.286;2024-01-15T01:47:08;40.20;;;13.57;;
5460;SDS011;2753;49.196;8.286;2024-01-15T01:49:34;34.63;;;12.60;;
5460;SDS011;2753;49.196;8.286;2024-01-15T01:52:01;39.70;;;12.87;;
5460;SDS011;2753;49.196;8.286;2024-01-15T01:54:31;31.30;;;11.77;;
5460;SDS011;2753;49.196;8.286;2024-01-15T01:56:57;34.93;;;11.03;;
5460;SDS011;2753;49.196;8.286;2024-01-15T01:59:27;37.07;;;11.70;;
5460;SDS011;2753;49.196;8.286;2024-01-15T02:01:53;36.63;;;13.33;;
5460;SDS011;2753;49.196;8.286;2024-01-15T02:04:19;28.63;;;10.93;;
5460;SDS011;2753;49.196;8.286;2024-01-15T02:06:47;33.53;;;10.50;;
5460;SDS011;2753;49.196;8.286;2024-01-15T02:09:13;36.87;;;11.97;;
5460;SDS011;2753;49.196;8.286;2024-01-15T02:11:42;36.13;;;12.03;;
5460;SDS011;2753;49.196;8.286;2024-01-15T02:14:08;32.77;;;11.70;;
5460;SDS011;2753;49.196;8.286;2024-01-15T02:16:34;40.57;;;11.40;;
5460;SDS011;2753;49.196;8.286;2024-01-15T02:19:00;40.87;;;12.80;;
5460;SDS011;2753;49.196;8.286;2024-01-15T02:21:26;36.87;;;12.47;;
5460;SDS011;2753;49.196;8.286;2024-01-15T02:23:53;36.43;;;14.63;;
5460;SDS011;2753;49.196;8.286;2024-01-15T02:26:20;33.20;;;12.50;;
5460;SDS011;2753;49.196;8.286;2024-01-15T02:28:47;35.33;;;12.93;;
5460;SDS011;2753;49.196;8.286;2024-01-15T02:31:13;35.10;;;13.07;;
5460;SDS011;2753;49.196;8.286;2024-01-15T02:33:39;29.77;;;9.80;;
5460;SDS011;2753;49.196;8.286;2024-01-15T02:36:05;37.13;;;11.33;;
5460;SDS011;2753;49.196;8.286;2024-01-15T02:38:30;36.60;;;9.97;;
5460;SDS011;2753;49.196;8.286;2024-01-15T02:40:57;26.60;;;10.20;;
5460;SDS011;2753;49.196;8.286;2024-01-15T02:43:23;30.53;;;10.97;;
5460;SDS011;2753;49.196;8.286;2024-01-15T02:45:52;35.73;;;11.77;;
5460;SDS011;2753;49.196;8.286;2024-01-15T02:48:17;34.23;;;11.60;;
5460;SDS011;2753;49.196;8.286;2024-01-15T02:50:43;38.37;;;12.80;;
5460;SDS011;2753;49.196;8.286;2024-01-15T02:53:09;35.50;;;11.37;;
5460;SDS011;2753;49.196;8.286;2024-01-15T02:55:34;43.73;;;13.13;;
5460;SDS011;2753;49.196;8.286;2024-01-15T02:58:00;37.80;;;13.07;;
5460;SDS011;2753;49.196;8.286;2024-01-15T03:00:26;19.30;;;8.70;;
5460;SDS011;2753;49.196;8.286;2024-01-15T03:02:51;30.27;;;10.70;;
5460;SDS011;2753;49.196;8.286;2024-01-15T03:05:17;28.77;;;11.77;;
5460;SDS011;2753;49.196;8.286;2024-01-15T03:07:43;24.90;;;11.07;;
5460;SDS011;2753;49.196;8.286;2024-01-15T03:10:09;29.57;;;11.63;;
5460;SDS011;2753;49.196;8.286;2024-01-15T03:12:35;34.03;;;11.13;;
5460;SDS011;2753;49.196;8.286;2024-01-15T03:15:00;41.30;;;12.60;;
5460;SDS011;2753;49.196;8.286;2024-01-15T03:17:26;39.03;;;10.07;;
5460;SDS011;2753;49.196;8.286;2024-01-15T03:19:52;29.87;;;10.23;;
5460;SDS011;2753;49.196;8.286;2024-01-15T03:22:18;36.27;;;12.47;;
5460;SDS011;2753;49.196;8.286;2024-01-15T03:24:44;31.80;;;11.43;;
5460;SDS011;2753;49.196;8.286;2024-01-15T03:27:10;40.50;;;11.63;;
5460;SDS011;2753;49.196;8.286;2024-01-15T03:29:35;29.80;;;11.00;;
5460;SDS011;2753;49.196;8.286;2024-01-15T03:32:01;34.47;;;11.70;;
5460;SDS011;2753;49.196;8.286;2024-01-15T03:34:27;36.37;;;10.43;;
5460;SDS011;2753;49.196;8.286;2024-01-15T03:36:52;32.60;;;11.20;;
5460;SDS011;2753;49.196;8.286;2024-01-15T03:39:18;35.43;;;9.63;;
5460;SDS011;2753;49.196;8.286;2024-01-15T03:41:44;30.83;;;10.70;;
5460;SDS011;2753;49.196;8.286;2024-01-15T03:44:10;39.87;;;11.73;;
5460;SDS011;2753;49.196;8.286;2024-01-15T03:46:35;28.27;;;12.00;;
5460;SDS011;2753;49.196;8.286;2024-01-15T03:49:01;33.93;;;11.10;;
5460;SDS011;2753;49.196;8.286;2024-01-15T03:51:27;33.27;;;12.00;;
5460;SDS011;2753;49.196;8.286;2024-01-15T03:53:52;32.50;;;11.80;;
5460;SDS011;2753;49.196;8.286;2024-01-15T03:56:18;34.60;;;13.20;;
5460;SDS011;2753;49.196;8.286;2024-01-15T03:58:44;38.50;;;13.30;;
5460;SDS011;2753;49.196;8.286;2024-01-15T04:01:10;29.53;;;10.57;;
5460;SDS011;2753;49.196;8.286;2024-01-15T04:03:36;33.47;;;10.63;;
5460;SDS011;2753;49.196;8.286;2024-01-15T04:06:02;31.07;;;12.70;;
5460;SDS011;2753;49.196;8.286;2024-01-15T04:08:28;37.97;;;12.80;;
5460;SDS011;2753;49.196;8.286;2024-01-15T04:10:54;35.90;;;12.77;;
5460;SDS011;2753;49.196;8.286;2024-01-15T04:13:20;36.80;;;10.60;;
5460;SDS011;2753;49.196;8.286;2024-01-15T04:15:46;31.70;;;11.70;;
5460;SDS011;2753;49.196;8.286;2024-01-15T04:18:11;42.30;;;13.57;;
5460;SDS011;2753;49.196;8.286;2024-01-15T04:20:37;32.53;;;12.47;;
5460;SDS011;2753;49.196;8.286;2024-01-15T04:23:03;31.33;;;11.57;;
5460;SDS011;2753;49.196;8.286;2024-01-15T04:25:29;29.33;;;10.67;;
5460;SDS011;2753;49.196;8.286;2024-01-15T04:27:55;35.20;;;14.40;;
5460;SDS011;2753;49.196;8.286;2024-01-15T04:30:21;39.07;;;13.33;;
5460;SDS011;2753;49.196;8.286;2024-01-15T04:32:47;37.47;;;11.47;;
5460;SDS011;2753;49.196;8.286;2024-01-15T04:35:12;53.63;;;16.47;;
5460;SDS011;2753;49.196;8.286;2024-01-15T04:37:39;40.00;;;13.60;;
5460;SDS011;2753;49.196;8.286;2024-01-15T04:40:05;29.77;;;12.57;;
5460;SDS011;2753;49.196;8.286;2024-01-15T04:42:31;30.70;;;12.33;;
5460;SDS011;2753;49.196;8.286;2024-01-15T04:44:57;42.30;;;16.17;;
5460;SDS011;2753;49.196;8.286;2024-01-15T04:47:23;35.00;;;11.10;;
5460;SDS011;2753;49.196;8.286;2024-01-15T04:49:48;31.03;;;12.03;;
5460;SDS011;2753;49.196;8.286;2024-01-15T04:52:14;32.77;;;10.67;;
5460;SDS011;2753;49.196;8.286;2024-01-15T04:54:40;33.07;;;10.67;;
5460;SDS011;2753;49.196;8.286;2024-01-15T04:57:06;41.23;;;13.10;;
5460;SDS011;2753;49.196;8.286;2024-01-15T04:59:31;36.77;;;12.00;;
5460;SDS011;2753;49.196;8.286;2024-01-15T05:01:57;31.60;;;11.00;;
5460;SDS011;2753;49.196;8.286;2024-01-15T05:04:23;32.93;;;12.83;;
5460;SDS011;2753;49.196;8.286;2024-01-15T05:06:50;35.40;;;13.37;;
5460;SDS011;2753;49.196;8.286;2024-01-15T05:09:17;42.90;;;13.73;;
5460;SDS011;2753;49.196;8.286;2024-01-15T05:11:43;37.57;;;13.37;;
5460;SDS011;2753;49.196;8.286;2024-01-15T05:14:08;33.67;;;11.00;;
5460;SDS011;2753;49.196;8.286;2024-01-15T05:16:34;31.43;;;11.20;;
5460;SDS011;2753;49.196;8.286;2024-01-15T05:19:02;31.33;;;11.80;;
5460;SDS011;2753;49.196;8.286;2024-01-15T05:21:28;38.30;;;12.20;;
5460;SDS011;2753;49.196;8.286;2024-01-15T05:23:54;31.30;;;12.40;;
5460;SDS011;2753;49.196;8.286;2024-01-15T05:26:19;30.50;;;11.27;;
5460;SDS011;2753;49.196;8.286;2024-01-15T05:28:45;34.03;;;14.07;;
5460;SDS011;2753;49.196;8.286;2024-01-15T05:31:11;34.07;;;12.73;;
5460;SDS011;2753;49.196;8.286;2024-01-15T05:33:37;30.97;;;12.00;;
5460;SDS011;2753;49.196;8.286;2024-01-15T05:36:03;33.30;;;11.90;;
5460;SDS011;2753;49.196;8.286;2024-01-15T05:38:29;43.73;;;16.57;;
5460;SDS011;2753;49.196;8.286;2024-01-15T05:40:54;32.17;;;11.40;;
5460;SDS011;2753;49.196;8.286;2024-01-15T05:43:20;38.40;;;14.67;;
5460;SDS011;2753;49.196;8.286;2024-01-15T05:45:46;35.17;;;12.00;;
5460;SDS011;2753;49.196;8.286;2024-01-15T05:48:12;43.40;;;15.70;;
5460;SDS011;2753;49.196;8.286;2024-01-15T05:50:38;33.70;;;13.57;;
5460;SDS011;2753;49.196;8.286;2024-01-15T05:53:03;26.70;;;12.40;;
5460;SDS011;2753;49.196;8.286;2024-01-15T05:55:29;32.17;;;13.00;;
5460;SDS011;2753;49.196;8.286;2024-01-15T05:57:55;30.30;;;11.17;;
5460;SDS011;2753;49.196;8.286;2024-01-15T06:00:21;37.40;;;12.80;;
5460;SDS011;2753;49.196;8.286;2024-01-15T06:02:47;28.90;;;11.90;;
5460;SDS011;2753;49.196;8.286;2024-01-15T06:05:12;37.37;;;12.80;;
5460;SDS011;2753;49.196;8.286;2024-01-15T06:07:38;43.43;;;13.83;;
5460;SDS011;2753;49.196;8.286;2024-01-15T06:10:04;28.87;;;11.00;;
5460;SDS011;2753;49.196;8.286;2024-01-15T06:12:30;34.30;;;13.10;;
5460;SDS011;2753;49.196;8.286;2024-01-15T06:14:57;29.70;;;10.73;;
5460;SDS011;2753;49.196;8.286;2024-01-15T06:17:23;42.50;;;14.67;;
5460;SDS011;2753;49.196;8.286;2024-01-15T06:19:48;32.30;;;12.80;;
5460;SDS011;2753;49.196;8.286;2024-01-15T06:22:14;34.70;;;12.47;;
5460;SDS011;2753;49.196;8.286;2024-01-15T06:24:41;35.73;;;11.87;;
5460;SDS011;2753;49.196;8.286;2024-01-15T06:27:07;35.73;;;13.43;;
5460;SDS011;2753;49.196;8.286;2024-01-15T06:29:33;33.73;;;13.93;;
5460;SDS011;2753;49.196;8.286;2024-01-15T06:32:02;37.10;;;13.00;;
5460;SDS011;2753;49.196;8.286;2024-01-15T06:34:28;32.53;;;13.23;;
5460;SDS011;2753;49.196;8.286;2024-01-15T06:36:54;25.07;;;10.90;;
5460;SDS011;2753;49.196;8.286;2024-01-15T06:39:19;33.00;;;12.33;;
5460;SDS011;2753;49.196;8.286;2024-01-15T06:41:45;41.43;;;14.53;;
5460;SDS011;2753;49.196;8.286;2024-01-15T06:44:11;44.43;;;14.40;;
5460;SDS011;2753;49.196;8.286;2024-01-15T06:46:38;42.77;;;13.87;;
5460;SDS011;2753;49.196;8.286;2024-01-15T06:49:08;33.30;;;12.60;;
5460;SDS011;2753;49.196;8.286;2024-01-15T06:51:33;39.60;;;15.90;;
5460;SDS011;2753;49.196;8.286;2024-01-15T06:53:59;41.97;;;16.97;;
5460;SDS011;2753;49.196;8.286;2024-01-15T06:56:25;41.87;;;19.80;;
5460;SDS011;2753;49.196;8.286;2024-01-15T06:58:54;36.53;;;12.67;;
5460;SDS011;2753;49.196;8.286;2024-01-15T07:01:20;38.20;;;13.20;;
5460;SDS011;2753;49.196;8.286;2024-01-15T07:03:46;30.33;;;13.10;;
5460;SDS011;2753;49.196;8.286;2024-01-15T07:06:12;36.40;;;13.67;;
5460;SDS011;2753;49.196;8.286;2024-01-15T07:08:39;36.17;;;13.17;;
5460;SDS011;2753;49.196;8.286;2024-01-15T07:11:05;32.87;;;15.30;;
5460;SDS011;2753;49.196;8.286;2024-01-15T07:13:32;38.80;;;11.73;;
5460;SDS011;2753;49.196;8.286;2024-01-15T07:15:57;33.40;;;14.73;;
5460;SDS011;2753;49.196;8.286;2024-01-15T07:18:23;50.67;;;15.10;;
5460;SDS011;2753;49.196;8.286;2024-01-15T07:20:49;42.63;;;16.67;;
5460;SDS011;2753;49.196;8.286;2024-01-15T07:23:16;39.90;;;15.63;;
5460;SDS011;2753;49.196;8.286;2024-01-15T07:25:42;43.80;;;15.93;;
5460;SDS011;2753;49.196;8.286;2024-01-15T07:28:08;36.23;;;14.37;;
5460;SDS011;2753;49.196;8.286;2024-01-15T07:30:34;39.07;;;13.13;;
5460;SDS011;2753;49.196;8.286;2024-01-15T07:33:00;32.90;;;12.87;;
5460;SDS011;2753;49.196;8.286;2024-01-15T07:35:26;39.83;;;15.87;;
5460;SDS011;2753;49.196;8.286;2024-01-15T07:37:51;44.30;;;15.17;;
5460;SDS011;2753;49.196;8.286;2024-01-15T07:40:17;36.07;;;14.10;;
5460;SDS011;2753;49.196;8.286;2024-01-15T07:42:46;40.40;;;16.80;;
5460;SDS011;2753;49.196;8.286;2024-01-15T07:45:12;33.33;;;12.83;;
5460;SDS011;2753;49.196;8.286;2024-01-15T07:47:38;47.03;;;12.87;;
5460;SDS011;2753;49.196;8.286;2024-01-15T07:50:04;41.73;;;13.70;;
5460;SDS011;2753;49.196;8.286;2024-01-15T07:52:30;33.80;;;14.03;;
5460;SDS011;2753;49.196;8.286;2024-01-15T07:54:58;32.70;;;12.90;;
5460;SDS011;2753;49.196;8.286;2024-01-15T07:57:28;28.30;;;13.00;;
5460;SDS011;2753;49.196;8.286;2024-01-15T07:59:54;38.60;;;12.17;;
5460;SDS011;2753;49.196;8.286;2024-01-15T08:02:20;36.60;;;13.17;;
5460;SDS011;2753;49.196;8.286;2024-01-15T08:04:46;32.97;;;11.97;;
5460;SDS011;2753;49.196;8.286;2024-01-15T08:07:12;35.23;;;13.63;;
5460;SDS011;2753;49.196;8.286;2024-01-15T08:09:38;29.97;;;12.40;;
5460;SDS011;2753;49.196;8.286;2024-01-15T08:12:04;31.40;;;12.57;;
5460;SDS011;2753;49.196;8.286;2024-01-15T08:14:31;34.67;;;13.50;;
5460;SDS011;2753;49.196;8.286;2024-01-15T08:16:57;29.70;;;11.70;;
5460;SDS011;2753;49.196;8.286;2024-01-15T08:19:23;33.13;;;12.60;;
5460;SDS011;2753;49.196;8.286;2024-01-15T08:21:51;41.40;;;14.00;;
5460;SDS011;2753;49.196;8.286;2024-01-15T08:24:17;35.43;;;12.70;;
5460;SDS011;2753;49.196;8.286;2024-01-15T08:26:43;39.23;;;12.73;;
5460;SDS011;2753;49.196;8.286;2024-01-15T08:29:09;34.53;;;11.87;;
5460;SDS011;2753;49.196;8.286;2024-01-15T08:31:35;38.13;;;14.40;;
5460;SDS011;2753;49.196;8.286;2024-01-15T08:34:00;27.43;;;13.80;;
5460;SDS011;2753;49.196;8.286;2024-01-15T08:36:27;45.70;;;13.23;;
5460;SDS011;2753;49.196;8.286;2024-01-15T08:38:54;34.10;;;12.93;;
5460;SDS011;2753;49.196;8.286;2024-01-15T08:41:20;33.53;;;11.70;;
5460;SDS011;2753;49.196;8.286;2024-01-15T08:43:46;35.37;;;13.03;;
5460;SDS011;2753;49.196;8.286;2024-01-15T08:46:12;32.83;;;10.77;;
5460;SDS011;2753;49.196;8.286;2024-01-15T08:48:40;30.00;;;13.50;;
5460;SDS011;2753;49.196;8.286;2024-01-15T08:51:06;34.93;;;12.40;;
5460;SDS011;2753;49.196;8.286;2024-01-15T08:53:33;28.93;;;12.67;;
5460;SDS011;2753;49.196;8.286;2024-01-15T08:55:58;32.00;;;13.90;;
5460;SDS011;2753;49.196;8.286;2024-01-15T08:58:24;22.63;;;11.70;;
5460;SDS011;2753;49.196;8.286;2024-01-15T09:00:50;47.73;;;14.90;;
5460;SDS011;2753;49.196;8.286;2024-01-15T09:03:16;29.87;;;12.20;;
5460;SDS011;2753;49.196;8.286;2024-01-15T09:05:42;27.93;;;13.23;;
5460;SDS011;2753;49.196;8.286;2024-01-15T09:08:08;25.40;;;11.27;;
5460;SDS011;2753;49.196;8.286;2024-01-15T09:10:34;27.37;;;10.77;;
5460;SDS011;2753;49.196;8.286;2024-01-15T09:13:00;36.67;;;13.23;;
5460;SDS011;2753;49.196;8.286;2024-01-15T09:15:25;24.33;;;11.40;;
5460;SDS011;2753;49.196;8.286;2024-01-15T09:17:51;33.83;;;12.70;;
5460;SDS011;2753;49.196;8.286;2024-01-15T09:20:17;42.07;;;15.17;;
5460;SDS011;2753;49.196;8.286;2024-01-15T09:22:43;41.07;;;15.53;;
5460;SDS011;2753;49.196;8.286;2024-01-15T09:25:09;36.10;;;13.70;;
5460;SDS011;2753;49.196;8.286;2024-01-15T09:27:35;35.90;;;13.93;;
5460;SDS011;2753;49.196;8.286;2024-01-15T09:30:02;30.80;;;12.50;;
5460;SDS011;2753;49.196;8.286;2024-01-15T09:32:28;36.20;;;14.73;;
5460;SDS011;2753;49.196;8.286;2024-01-15T09:34:54;38.43;;;14.00;;
5460;SDS011;2753;49.196;8.286;2024-01-15T09:37:20;41.80;;;16.27;;
5460;SDS011;2753;49.196;8.286;2024-01-15T09:39:46;40.07;;;14.80;;
5460;SDS011;2753;49.196;8.286;2024-01-15T09:42:13;47.20;;;15.80;;
5460;SDS011;2753;49.196;8.286;2024-01-15T09:44:40;37.13;;;13.63;;
5460;SDS011;2753;49.196;8.286;2024-01-15T09:47:06;33.00;;;15.30;;
5460;SDS011;2753;49.196;8.286;2024-01-15T09:49:36;50.10;;;14.87;;
5460;SDS011;2753;49.196;8.286;2024-01-15T09:52:03;32.73;;;14.13;;
5460;SDS011;2753;49.196;8.286;2024-01-15T09:54:29;37.90;;;15.47;;
5460;SDS011;2753;49.196;8.286;2024-01-15T09:56:57;41.33;;;15.23;;
5460;SDS011;2753;49.196;8.286;2024-01-15T09:59:24;41.90;;;14.67;;
5460;SDS011;2753;49.196;8.286;2024-01-15T10:01:50;39.37;;;14.70;;
5460;SDS011;2753;49.196;8.286;2024-01-15T10:04:21;40.90;;;14.20;;
5460;SDS011;2753;49.196;8.286;2024-01-15T10:06:48;46.23;;;15.03;;
5460;SDS011;2753;49.196;8.286;2024-01-15T10:09:17;36.10;;;14.27;;
5460;SDS011;2753;49.196;8.286;2024-01-15T10:11:43;35.57;;;13.30;;
5460;SDS011;2753;49.196;8.286;2024-01-15T10:14:10;34.40;;;15.20;;
5460;SDS011;2753;49.196;8.286;2024-01-15T10:16:39;43.23;;;14.60;;
5460;SDS011;2753;49.196;8.286;2024-01-15T10:19:05;39.70;;;16.00;;
5460;SDS011;2753;49.196;8.286;2024-01-15T10:21:32;37.10;;;13.90;;
5460;SDS011;2753;49.196;8.286;2024-01-15T10:24:02;37.50;;;15.03;;
5460;SDS011;2753;49.196;8.286;2024-01-15T10:26:29;44.80;;;15.63;;
5460;SDS011;2753;49.196;8.286;2024-01-15T10:28:56;35.53;;;14.67;;
5460;SDS011;2753;49.196;8.286;2024-01-15T10:31:26;41.67;;;12.63;;
5460;SDS011;2753;49.196;8.286;2024-01-15T10:34:02;42.87;;;15.03;;
5460;SDS011;2753;49.196;8.286;2024-01-15T10:36:45;43.40;;;14.57;;
5460;SDS011;2753;49.196;8.286;2024-01-15T10:39:13;40.63;;;14.87;;
5460;SDS011;2753;49.196;8.286;2024-01-15T10:41:39;44.20;;;15.93;;
5460;SDS011;2753;49.196;8.286;2024-01-15T10:44:05;33.07;;;13.57;;
5460;SDS011;2753;49.196;8.286;2024-01-15T10:46:30;41.70;;;13.97;;
5460;SDS011;2753;49.196;8.286;2024-01-15T10:48:57;38.67;;;13.43;;
5460;SDS011;2753;49.196;8.286;2024-01-15T10:51:23;35.77;;;15.07;;
5460;SDS011;2753;49.196;8.286;2024-01-15T10:53:51;42.70;;;15.53;;
5460;SDS011;2753;49.196;8.286;2024-01-15T10:56:22;38.20;;;14.33;;
5460;SDS011;2753;49.196;8.286;2024-01-15T10:58:48;41.87;;;16.37;;
5460;SDS011;2753;49.196;8.286;2024-01-15T11:01:16;35.77;;;13.70;;
5460;SDS011;2753;49.196;8.286;2024-01-15T11:03:42;38.87;;;14.50;;
5460;SDS011;2753;49.196;8.286;2024-01-15T11:06:18;36.10;;;12.40;;
5460;SDS011;2753;49.196;8.286;2024-01-15T11:08:53;37.17;;;14.13;;
5460;SDS011;2753;49.196;8.286;2024-01-15T11:11:20;45.60;;;16.00;;
5460;SDS011;2753;49.196;8.286;2024-01-15T11:13:47;37.67;;;16.47;;
5460;SDS011;2753;49.196;8.286;2024-01-15T11:16:15;40.53;;;15.10;;
5460;SDS011;2753;49.196;8.286;2024-01-15T11:18:42;44.13;;;17.10;;
5460;SDS011;2753;49.196;8.286;2024-01-15T11:21:26;34.23;;;15.20;;
5460;SDS011;2753;49.196;8.286;2024-01-15T11:29:06;45.10;;;15.67;;
5460;SDS011;2753;49.196;8.286;2024-01-15T11:34:05;39.20;;;17.20;;
5460;SDS011;2753;49.196;8.286;2024-01-15T11:41:57;42.63;;;19.70;;
5460;SDS011;2753;49.196;8.286;2024-01-15T11:44:24;47.93;;;16.43;;
5460;SDS011;2753;49.196;8.286;2024-01-15T11:47:03;40.37;;;16.80;;
5460;SDS011;2753;49.196;8.286;2024-01-15T11:52:21;59.77;;;19.17;;
5460;SDS011;2753;49.196;8.286;2024-01-15T11:57:45;46.63;;;17.23;;
5460;SDS011;2753;49.196;8.286;2024-01-15T12:00:14;40.70;;;16.60;;
5460;SDS011;2753;49.196;8.286;2024-01-15T12:02:44;50.97;;;17.37;;
5460;SDS011;2753;49.196;8.286;2024-01-15T12:05:12;42.33;;;17.30;;
5460;SDS011;2753;49.196;8.286;2024-01-15T12:07:40;41.40;;;14.40;;
5460;SDS011;2753;49.196;8.286;2024-01-15T12:15:29;29.63;;;15.10;;
5460;SDS011;2753;49.196;8.286;2024-01-15T12:17:56;38.77;;;12.63;;
5460;SDS011;2753;49.196;8.286;2024-01-15T12:20:24;34.10;;;15.00;;
5460;SDS011;2753;49.196;8.286;2024-01-15T12:22:50;39.80;;;12.87;;
5460;SDS011;2753;49.196;8.286;2024-01-15T12:25:16;30.30;;;12.93;;
5460;SDS011;2753;49.196;8.286;2024-01-15T12:27:42;28.00;;;12.53;;
5460;SDS011;2753;49.196;8.286;2024-01-15T12:30:12;23.30;;;12.20;;
5460;SDS011;2753;49.196;8.286;2024-01-15T12:32:41;26.27;;;12.47;;
5460;SDS011;2753;49.196;8.286;2024-01-15T12:35:07;29.23;;;12.97;;
5460;SDS011;2753;49.196;8.286;2024-01-15T12:37:40;27.63;;;12.03;;
5460;SDS011;2753;49.196;8.286;2024-01-15T12:40:06;23.43;;;11.10;;
5460;SDS011;2753;49.196;8.286;2024-01-15T12:42:35;23.57;;;11.00;;
5460;SDS011;2753;49.196;8.286;2024-01-15T12:45:08;29.47;;;12.83;;
5460;SDS011;2753;49.196;8.286;2024-01-15T12:47:35;26.40;;;12.43;;
5460;SDS011;2753;49.196;8.286;2024-01-15T12:50:01;21.13;;;10.53;;
5460;SDS011;2753;49.196;8.286;2024-01-15T12:52:31;24.23;;;11.40;;
5460;SDS011;2753;49.196;8.286;2024-01-15T12:54:57;28.20;;;12.30;;
5460;SDS011;2753;49.196;8.286;2024-01-15T12:57:23;25.30;;;12.17;;
5460;SDS011;2753;49.196;8.286;2024-01-15T12:59:49;24.63;;;13.00;;
5460;SDS011;2753;49.196;8.286;2024-01-15T13:02:18;24.73;;;12.07;;
5460;SDS011;2753;49.196;8.286;2024-01-15T13:04:44;27.03;;;11.47;;
5460;SDS011;2753;49.196;8.286;2024-01-15T13:07:10;17.83;;;9.50;;
5460;SDS011;2753;49.196;8.286;2024-01-15T13:09:35;15.87;;;9.10;;
5460;SDS011;2753;49.196;8.286;2024-01-15T13:12:01;25.40;;;12.03;;
5460;SDS011;2753;49.196;8.286;2024-01-15T13:14:28;21.93;;;11.80;;
5460;SDS011;2753;49.196;8.286;2024-01-15T13:16:54;22.00;;;11.80;;
5460;SDS011;2753;49.196;8.286;2024-01-15T13:19:21;26.17;;;11.63;;
5460;SDS011;2753;49.196;8.286;2024-01-15T13:21:47;20.10;;;10.17;;
5460;SDS011;2753;49.196;8.286;2024-01-15T13:24:15;25.43;;;11.10;;
5460;SDS011;2753;49.196;8.286;2024-01-15T13:26:40;22.73;;;10.57;;
5460;SDS011;2753;49.196;8.286;2024-01-15T13:29:06;27.33;;;11.03;;
5460;SDS011;2753;49.196;8.286;2024-01-15T13:31:32;18.03;;;9.13;;
5460;SDS011;2753;49.196;8.286;2024-01-15T13:33:58;15.93;;;8.60;;
5460;SDS011;2753;49.196;8.286;2024-01-15T13:36:27;21.30;;;9.70;;
5460;SDS011;2753;49.196;8.286;2024-01-15T13:38:55;19.43;;;9.87;;
5460;SDS011;2753;49.196;8.286;2024-01-15T13:41:21;20.63;;;9.13;;
5460;SDS011;2753;49.196;8.286;2024-01-15T13:43:52;20.27;;;9.93;;
5460;SDS011;2753;49.196;8.286;2024-01-15T13:46:18;20.70;;;9.93;;
5460;SDS011;2753;49.196;8.286;2024-01-15T13:48:45;17.63;;;8.63;;
5460;SDS011;2753;49.196;8.286;2024-01-15T13:51:10;22.17;;;8.83;;
5460;SDS011;2753;49.196;8.286;2024-01-15T13:53:39;17.37;;;8.53;;
5460;SDS011;2753;49.196;8.286;2024-01-15T13:56:05;19.10;;;9.03;;
5460;SDS011;2753;49.196;8.286;2024-01-15T13:58:32;19.97;;;8.30;;
5460;SDS011;2753;49.196;8.286;2024-01-15T14:00:58;18.93;;;9.47;;
5460;SDS011;2753;49.196;8.286;2024-01-15T14:03:24;33.37;;;9.80;;
5460;SDS011;2753;49.196;8.286;2024-01-15T14:05:51;20.30;;;10.97;;
5460;SDS011;2753;49.196;8.286;2024-01-15T14:08:17;18.67;;;9.60;;
5460;SDS011;2753;49.196;8.286;2024-01-15T14:10:43;20.10;;;8.77;;
5460;SDS011;2753;49.196;8.286;2024-01-15T14:13:11;12.77;;;7.70;;
5460;SDS011;2753;49.196;8.286;2024-01-15T14:15:37;14.40;;;7.30;;
5460;SDS011;2753;49.196;8.286;2024-01-15T14:18:03;18.60;;;8.07;;
5460;SDS011;2753;49.196;8.286;2024-01-15T14:20:29;15.27;;;7.13;;
5460;SDS011;2753;49.196;8.286;2024-01-15T14:22:55;17.37;;;7.87;;
5460;SDS011;2753;49.196;8.286;2024-01-15T14:25:20;14.80;;;7.93;;
5460;SDS011;2753;49.196;8.286;2024-01-15T14:27:46;13.00;;;7.87;;
5460;SDS011;2753;49.196;8.286;2024-01-15T14:30:12;15.83;;;6.80;;
5460;SDS011;2753;49.196;8.286;2024-01-15T14:32:41;17.30;;;8.70;;
5460;SDS011;2753;49.196;8.286;2024-01-15T14:35:10;14.17;;;8.13;;
5460;SDS011;2753;49.196;8.286;2024-01-15T14:37:39;16.73;;;8.70;;
5460;SDS011;2753;49.196;8.286;2024-01-15T14:40:06;15.17;;;7.43;;
5460;SDS011;2753;49.196;8.286;2024-01-15T14:42:35;11.73;;;7.83;;
5460;SDS011;2753;49.196;8.286;2024-01-15T14:45:02;14.90;;;8.37;;
5460;SDS011;2753;49.196;8.286;2024-01-15T14:47:30;18.43;;;7.77;;
5460;SDS011;2753;49.196;8.286;2024-01-15T14:49:56;16.93;;;7.93;;
5460;SDS011;2753;49.196;8.286;2024-01-15T14:52:22;15.93;;;8.03;;
5460;SDS011;2753;49.196;8.286;2024-01-15T14:54:49;17.50;;;7.90;;
5460;SDS011;2753;49.196;8.286;2024-01-15T14:57:15;16.30;;;7.27;;
5460;SDS011;2753;49.196;8.286;2024-01-15T14:59:40;25.13;;;12.47;;
5460;SDS011;2753;49.196;8.286;2024-01-15T15:02:06;12.23;;;7.20;;
5460;SDS011;2753;49.196;8.286;2024-01-15T15:04:32;14.83;;;7.90;;
5460;SDS011;2753;49.196;8.286;2024-01-15T15:06:58;13.63;;;6.87;;
5460;SDS011;2753;49.196;8.286;2024-01-15T15:09:24;17.27;;;7.60;;